Time;durP1;ratioP1;P1;durP2;ratioP2;P2;SDS_P1;SDS_P2;PMS_P1;PMS_P2;Temp;Humidity;BMP_temperature;BMP_pressure;BME280_temperature;BME280_humidity;BME280_pressure;Samples;Min_cycle;Max_cycle;Signal;HPM_P1;HPM_P2
2021/08/01 00:01:21;;;;;;;7.05;4.50;;;21.00;75.70;;;;;;5047147;28;20074;-71
2021/08/01 00:04:05;;;;;;;5.82;4.50;;;21.00;75.70;;;;;;5046955;28;20089;-70
2021/08/01 00:06:50;;;;;;;7.82;4.35;;;20.90;75.80;;;;;;5047011;28;20029;-70
2021/08/01 00:09:34;;;;;;;6.88;4.38;;;21.00;75.80;;;;;;5046877;28;20049;-70
2021/08/01 00:12:18;;;;;;;5.50;3.90;;;21.00;75.70;;;;;;5046741;28;20323;-70
2021/08/01 00:15:03;;;;;;;6.78;4.82;;;21.00;75.90;;;;;;5047198;28;20020;-70
2021/08/01 00:17:47;;;;;;;7.43;4.43;;;21.10;76.00;;;;;;5045916;28;20036;-70
2021/08/01 00:20:31;;;;;;;6.47;4.70;;;21.10;76.10;;;;;;5047138;28;20060;-71
2021/08/01 00:23:15;;;;;;;7.35;4.45;;;21.00;76.50;;;;;;5046461;28;20109;-70
2021/08/01 00:26:00;;;;;;;5.97;4.63;;;21.10;76.40;;;;;;5046010;28;20080;-71
2021/08/01 00:28:44;;;;;;;7.20;4.70;;;21.10;76.40;;;;;;5046805;28;20112;-71
2021/08/01 00:31:28;;;;;;;7.25;4.78;;;21.10;76.40;;;;;;5046636;28;20040;-71
2021/08/01 00:34:12;;;;;;;6.90;4.85;;;21.10;76.60;;;;;;5045521;28;20091;-71
2021/08/01 00:36:56;;;;;;;5.55;4.20;;;21.10;76.50;;;;;;5046499;28;20071;-71
2021/08/01 00:39:41;;;;;;;7.78;4.95;;;21.10;76.40;;;;;;5046327;28;20430;-71
2021/08/01 00:42:25;;;;;;;6.60;4.30;;;20.80;77.60;;;;;;5046202;28;20217;-70
2021/08/01 00:45:10;;;;;;;8.20;4.47;;;20.80;77.40;;;;;;5046665;28;20029;-71
2021/08/01 00:47:54;;;;;;;9.52;5.00;;;20.90;76.90;;;;;;5046283;28;20036;-71
2021/08/01 00:50:40;;;;;;;8.13;4.55;;;21.00;76.90;;;;;;5046205;28;20076;-71
2021/08/01 00:53:25;;;;;;;7.30;4.85;;;21.00;77.20;;;;;;5045100;28;20033;-70
2021/08/01 00:56:10;;;;;;;9.65;4.75;;;21.00;77.30;;;;;;5046002;28;20049;-71
2021/08/01 00:58:54;;;;;;;7.38;4.93;;;21.00;77.10;;;;;;5045049;28;20032;-71
2021/08/01 01:01:51;;;;;;;6.65;4.80;;;21.10;76.90;;;;;;5045871;28;20221;-71
2021/08/01 01:04:46;;;;;;;7.85;5.45;;;21.10;77.10;;;;;;5044897;28;20040;-70
2021/08/01 01:07:57;;;;;;;9.27;4.88;;;21.20;77.10;;;;;;5045858;28;20047;-71
2021/08/01 01:10:45;;;;;;;8.88;5.35;;;21.20;77.20;;;;;;5044886;28;20048;-71
2021/08/01 01:13:35;;;;;;;7.63;5.10;;;21.10;77.20;;;;;;5044787;28;20032;-71
2021/08/01 01:16:19;;;;;;;10.30;6.07;;;21.00;77.40;;;;;;5045870;28;20036;-70
2021/08/01 01:19:03;;;;;;;7.75;5.25;;;21.00;77.50;;;;;;5044616;28;20351;-70
2021/08/01 01:21:54;;;;;;;10.00;4.72;;;20.90;77.60;;;;;;5045296;28;20028;-70
2021/08/01 01:24:38;;;;;;;7.13;4.43;;;20.90;77.40;;;;;;5045242;28;20083;-70
2021/08/01 01:27:35;;;;;;;6.57;3.67;;;20.80;77.30;;;;;;5045454;28;20044;-70
2021/08/01 01:30:19;;;;;;;7.90;3.40;;;20.80;76.60;;;;;;5044313;28;20040;-70
2021/08/01 01:33:06;;;;;;;7.93;3.55;;;20.70;76.00;;;;;;5044898;28;20084;-71
2021/08/01 01:35:52;;;;;;;8.23;3.58;;;20.60;75.90;;;;;;5030742;28;20052;-71
2021/08/01 01:38:36;;;;;;;7.93;3.60;;;20.50;75.40;;;;;;5044838;28;20348;-71
2021/08/01 01:41:22;;;;;;;7.72;3.55;;;20.40;75.20;;;;;;5045669;28;20036;-70
2021/08/01 01:44:06;;;;;;;6.88;3.35;;;20.20;74.80;;;;;;5044182;28;20103;-70
2021/08/01 01:46:50;;;;;;;7.50;3.65;;;20.00;75.20;;;;;;5045037;28;20048;-70
2021/08/01 01:49:35;;;;;;;7.00;3.78;;;19.60;75.00;;;;;;5030137;28;20064;-70
2021/08/01 01:52:19;;;;;;;7.47;3.60;;;19.40;74.90;;;;;;5043977;28;20040;-70
2021/08/01 01:55:04;;;;;;;8.70;3.33;;;19.20;74.70;;;;;;5043963;28;20032;-70
2021/08/01 01:57:48;;;;;;;5.78;3.22;;;19.40;74.50;;;;;;5030172;28;20033;-71
2021/08/01 02:00:33;;;;;;;7.97;3.15;;;19.40;74.30;;;;;;5043926;28;20036;-70
2021/08/01 02:03:17;;;;;;;6.38;3.25;;;19.40;74.30;;;;;;5044704;28;20071;-69
2021/08/01 02:06:01;;;;;;;8.25;4.13;;;19.40;74.10;;;;;;5045152;28;20347;-70
2021/08/01 02:08:57;;;;;;;8.10;3.33;;;19.40;74.20;;;;;;5044773;28;20040;-70
2021/08/01 02:11:49;;;;;;;9.05;3.13;;;19.30;74.00;;;;;;5044658;28;20351;-70
2021/08/01 02:14:45;;;;;;;6.95;3.25;;;19.20;73.80;;;;;;5030939;28;20036;-70
2021/08/01 02:17:49;;;;;;;5.40;3.78;;;19.10;74.00;;;;;;5031215;28;20071;-70
2021/08/01 02:20:40;;;;;;;7.05;3.53;;;19.00;74.10;;;;;;5044188;28;20083;-70
2021/08/01 02:23:25;;;;;;;5.00;3.60;;;19.00;73.90;;;;;;5030064;28;20044;-70
2021/08/01 02:26:10;;;;;;;6.03;3.58;;;18.90;73.80;;;;;;5029979;28;20209;-70
2021/08/01 02:28:54;;;;;;;9.60;3.63;;;19.00;73.80;;;;;;5044581;28;20036;-70
2021/08/01 02:31:38;;;;;;;10.02;3.80;;;18.90;74.30;;;;;;5043462;28;20100;-70
2021/08/01 02:34:23;;;;;;;7.60;3.97;;;18.80;73.90;;;;;;5043473;28;20032;-70
2021/08/01 02:37:07;;;;;;;4.63;3.47;;;18.90;74.20;;;;;;5044295;28;20091;-70
2021/08/01 02:39:51;;;;;;;9.80;4.00;;;18.80;74.10;;;;;;5044215;28;20032;-70
2021/08/01 02:42:35;;;;;;;6.07;3.88;;;18.80;74.20;;;;;;5044116;28;20230;-70
2021/08/01 02:45:20;;;;;;;8.43;3.58;;;18.80;74.20;;;;;;5029169;28;20391;-69
2021/08/01 02:48:04;;;;;;;8.07;3.83;;;18.70;74.50;;;;;;5043452;28;20092;-70
2021/08/01 02:50:52;;;;;;;6.15;3.67;;;18.80;74.60;;;;;;5043061;28;20036;-70
2021/08/01 02:53:39;;;;;;;6.88;3.90;;;18.90;74.50;;;;;;5042915;28;20037;-70
2021/08/01 02:56:25;;;;;;;9.10;4.38;;;18.80;74.60;;;;;;5043363;28;20032;-70
2021/08/01 02:59:08;;;;;;;9.85;4.03;;;18.80;74.60;;;;;;5042834;28;20225;-70
2021/08/01 03:01:56;;;;;;;8.43;4.13;;;18.80;74.80;;;;;;5043771;28;20029;-70
2021/08/01 03:04:40;;;;;;;7.80;3.75;;;18.70;74.80;;;;;;5043745;28;20355;-70
2021/08/01 03:07:24;;;;;;;5.57;3.97;;;18.80;74.40;;;;;;5043708;28;20048;-70
2021/08/01 03:10:09;;;;;;;8.85;4.20;;;18.80;74.30;;;;;;5042571;28;20260;-70
2021/08/01 03:12:53;;;;;;;5.70;4.00;;;18.70;75.00;;;;;;5043665;28;20044;-70
2021/08/01 03:15:37;;;;;;;9.15;4.18;;;18.80;74.80;;;;;;5042775;28;20028;-69
2021/08/01 03:18:22;;;;;;;5.88;3.67;;;18.80;74.90;;;;;;5043544;28;20351;-69
2021/08/01 03:21:06;;;;;;;6.53;3.70;;;18.70;75.00;;;;;;5043993;28;20025;-70
2021/08/01 03:23:51;;;;;;;9.85;4.18;;;18.50;75.30;;;;;;5043464;28;20079;-70
2021/08/01 03:26:35;;;;;;;8.52;4.03;;;18.70;75.10;;;;;;5043535;28;20040;-70
2021/08/01 03:29:19;;;;;;;6.57;4.20;;;18.80;75.00;;;;;;5043474;28;20075;-70
2021/08/01 03:32:04;;;;;;;7.63;4.25;;;18.70;75.30;;;;;;5045148;28;20367;-70
2021/08/01 03:34:48;;;;;;;7.07;4.40;;;18.80;75.30;;;;;;5047543;28;20140;-70
2021/08/01 03:37:32;;;;;;;9.77;3.60;;;18.80;75.30;;;;;;5047509;28;20092;-70
2021/08/01 03:40:17;;;;;;;5.85;3.80;;;18.40;75.70;;;;;;5047461;28;20221;-70
2021/08/01 03:43:01;;;;;;;5.88;3.17;;;18.20;75.60;;;;;;5047387;28;20036;-70
2021/08/01 03:45:45;;;;;;;7.40;3.25;;;17.80;76.40;;;;;;5047571;28;20025;-70
2021/08/01 03:48:30;;;;;;;6.07;2.78;;;18.00;76.50;;;;;;5047535;28;20024;-69
2021/08/01 03:51:14;;;;;;;4.72;2.50;;;18.00;76.10;;;;;;5047199;28;20068;-69
2021/08/01 03:53:58;;;;;;;4.90;2.03;;;18.00;76.10;;;;;;5047677;28;20028;-70
2021/08/01 03:56:43;;;;;;;3.25;1.63;;;18.10;76.40;;;;;;5046357;28;20082;-70
2021/08/01 03:59:27;;;;;;;3.13;1.30;;;18.10;76.40;;;;;;5047668;28;20033;-70
2021/08/01 04:02:12;;;;;;;1.80;1.30;;;18.10;76.50;;;;;;5047069;28;20032;-70
2021/08/01 04:04:57;;;;;;;3.95;1.60;;;18.10;76.60;;;;;;5047019;28;20032;-70
2021/08/01 04:07:41;;;;;;;3.47;1.52;;;18.10;76.40;;;;;;5046952;28;20032;-70
2021/08/01 04:10:25;;;;;;;3.47;1.30;;;18.20;76.50;;;;;;5047051;28;20048;-70
2021/08/01 04:13:09;;;;;;;3.70;1.30;;;18.10;76.80;;;;;;5047039;28;20024;-70
2021/08/01 04:15:54;;;;;;;2.25;0.95;;;18.00;76.80;;;;;;5046860;28;20052;-70
2021/08/01 04:18:38;;;;;;;3.17;0.90;;;18.10;76.90;;;;;;5046809;28;20060;-70
2021/08/01 04:21:22;;;;;;;1.27;0.90;;;18.00;76.70;;;;;;5046688;28;20052;-69
2021/08/01 04:24:07;;;;;;;1.65;0.90;;;17.90;76.70;;;;;;5046835;28;20091;-70
2021/08/01 04:26:51;;;;;;;2.30;1.10;;;17.90;76.80;;;;;;5046743;28;20067;-70
2021/08/01 04:29:35;;;;;;;3.30;1.40;;;17.90;76.70;;;;;;5046569;28;20359;-70
2021/08/01 04:32:20;;;;;;;2.10;1.20;;;17.90;76.80;;;;;;5046884;28;20049;-70
2021/08/01 04:35:04;;;;;;;2.25;1.30;;;17.80;77.00;;;;;;5045917;28;20350;-70
2021/08/01 04:37:49;;;;;;;1.60;1.00;;;17.90;77.20;;;;;;5046343;28;20079;-70
2021/08/01 04:40:33;;;;;;;1.70;1.20;;;17.80;77.20;;;;;;5046593;28;20087;-70
2021/08/01 04:43:18;;;;;;;3.15;1.27;;;17.90;77.20;;;;;;5045677;28;20029;-70
2021/08/01 04:46:02;;;;;;;2.92;1.30;;;17.90;77.30;;;;;;5046198;28;20076;-70
2021/08/01 04:48:46;;;;;;;2.08;1.30;;;17.90;77.50;;;;;;5046301;28;20236;-70
2021/08/01 04:51:30;;;;;;;3.70;1.50;;;17.80;77.50;;;;;;5046361;28;20124;-69
2021/08/01 04:54:15;;;;;;;2.65;1.40;;;17.80;77.50;;;;;;5046044;28;20079;-69
2021/08/01 04:56:59;;;;;;;2.03;1.40;;;17.90;77.50;;;;;;5046440;28;20032;-70
2021/08/01 04:59:43;;;;;;;2.20;1.40;;;17.80;77.50;;;;;;5046118;28;20039;-70
2021/08/01 05:02:27;;;;;;;3.47;1.35;;;17.90;77.40;;;;;;5046353;28;20067;-70
2021/08/01 05:05:12;;;;;;;1.65;1.20;;;17.80;77.60;;;;;;5045897;28;20032;-70
2021/08/01 05:07:56;;;;;;;2.75;1.60;;;17.80;77.60;;;;;;5046181;28;20052;-70
2021/08/01 05:10:40;;;;;;;1.70;1.40;;;17.80;77.60;;;;;;5045694;28;20064;-70
2021/08/01 05:13:25;;;;;;;6.55;1.27;;;17.80;77.80;;;;;;5045937;28;20068;-70
2021/08/01 05:16:15;;;;;;;2.15;1.30;;;17.80;77.80;;;;;;5045868;28;20291;-70
2021/08/01 05:18:59;;;;;;;2.25;1.20;;;17.90;77.70;;;;;;5045770;28;20037;-70
2021/08/01 05:21:43;;;;;;;2.75;1.17;;;17.80;77.60;;;;;;5045681;28;20028;-70
2021/08/01 05:24:28;;;;;;;2.30;1.00;;;17.80;77.60;;;;;;5045337;28;20063;-70
2021/08/01 05:27:12;;;;;;;2.03;1.30;;;17.80;77.60;;;;;;5045902;28;20095;-70
2021/08/01 05:29:56;;;;;;;3.33;1.40;;;17.80;77.50;;;;;;5045457;28;20044;-70
2021/08/01 05:32:40;;;;;;;2.97;1.23;;;17.80;77.40;;;;;;5045540;28;20060;-70
2021/08/01 05:35:24;;;;;;;2.72;1.30;;;17.80;77.50;;;;;;5045288;28;20351;-70
2021/08/01 05:38:09;;;;;;;3.65;1.50;;;17.80;77.40;;;;;;5045390;28;20036;-70
2021/08/01 05:40:53;;;;;;;2.25;1.30;;;17.80;77.30;;;;;;5045199;28;20070;-70
2021/08/01 05:43:39;;;;;;;1.52;1.15;;;17.80;77.30;;;;;;5045191;28;20071;-70
2021/08/01 05:46:24;;;;;;;1.83;1.25;;;17.80;77.60;;;;;;5045106;28;20037;-70
2021/08/01 05:49:08;;;;;;;2.10;1.30;;;17.80;77.60;;;;;;5044984;28;20032;-70
2021/08/01 05:51:52;;;;;;;3.85;1.30;;;17.70;77.50;;;;;;5044939;28;20080;-70
2021/08/01 05:54:36;;;;;;;2.08;1.30;;;17.80;77.40;;;;;;5044326;28;20205;-70
2021/08/01 05:57:21;;;;;;;4.57;1.60;;;17.80;77.40;;;;;;5044745;28;20351;-69
2021/08/01 06:00:06;;;;;;;3.20;1.60;;;17.80;77.10;;;;;;5045264;28;20049;-70
2021/08/01 06:02:50;;;;;;;2.33;1.55;;;17.80;77.30;;;;;;5044926;28;20359;-70
2021/08/01 06:05:34;;;;;;;4.53;1.60;;;17.80;77.20;;;;;;5045461;28;20033;-70
2021/08/01 06:08:18;;;;;;;2.05;1.40;;;17.70;77.20;;;;;;5045161;28;20040;-70
2021/08/01 06:11:04;;;;;;;3.33;1.50;;;17.70;77.10;;;;;;5044924;28;20044;-70
2021/08/01 06:13:48;;;;;;;3.15;1.73;;;17.70;77.20;;;;;;5044571;28;20032;-70
2021/08/01 06:16:34;;;;;;;2.20;1.58;;;17.60;77.40;;;;;;5044796;28;20241;-70
2021/08/01 06:19:18;;;;;;;4.05;1.55;;;17.60;77.60;;;;;;5044763;28;20025;-70
2021/08/01 06:22:02;;;;;;;2.22;1.50;;;17.60;77.70;;;;;;5044379;28;20064;-71
2021/08/01 06:24:46;;;;;;;3.47;1.40;;;17.60;77.60;;;;;;5044271;28;20105;-70
2021/08/01 06:27:31;;;;;;;2.33;1.63;;;17.50;77.70;;;;;;5044391;28;20109;-72
2021/08/01 06:30:15;;;;;;;2.00;1.35;;;17.50;77.90;;;;;;5044236;28;20036;-69
2021/08/01 06:33:00;;;;;;;2.25;1.50;;;17.50;77.80;;;;;;5044689;28;20056;-71
2021/08/01 06:35:44;;;;;;;2.63;1.63;;;17.50;77.60;;;;;;5043366;28;20264;-70
2021/08/01 06:38:29;;;;;;;3.95;1.48;;;17.50;77.70;;;;;;5044652;28;20068;-70
2021/08/01 06:41:13;;;;;;;2.45;1.55;;;17.40;77.90;;;;;;5044540;28;20244;-70
2021/08/01 06:43:57;;;;;;;2.00;1.42;;;17.40;78.00;;;;;;5044036;28;20032;-71
2021/08/01 06:46:42;;;;;;;2.10;1.42;;;17.50;77.90;;;;;;5044302;28;20056;-71
2021/08/01 06:49:26;;;;;;;4.00;1.70;;;17.60;78.00;;;;;;5043936;28;20079;-70
2021/08/01 06:52:10;;;;;;;1.95;1.50;;;17.60;78.30;;;;;;5043794;28;20033;-70
2021/08/01 06:54:55;;;;;;;3.03;1.60;;;17.70;78.50;;;;;;5043865;28;20040;-70
2021/08/01 06:57:39;;;;;;;5.35;2.10;;;17.80;78.50;;;;;;5043725;28;20382;-70
2021/08/01 07:00:23;;;;;;;2.53;1.95;;;17.80;78.80;;;;;;5043669;28;20204;-70
2021/08/01 07:03:08;;;;;;;6.43;2.20;;;17.80;78.70;;;;;;5044169;28;20081;-71
2021/08/01 07:05:52;;;;;;;3.75;1.80;;;17.80;78.60;;;;;;5043660;28;20036;-71
2021/08/01 07:08:37;;;;;;;4.25;2.08;;;17.90;78.60;;;;;;5043723;28;20089;-70
2021/08/01 07:11:21;;;;;;;4.47;2.10;;;18.00;78.30;;;;;;5044062;28;20041;-71
2021/08/01 07:14:05;;;;;;;2.40;1.63;;;18.00;78.20;;;;;;5044008;28;20044;-71
2021/08/01 07:16:49;;;;;;;4.90;1.70;;;18.00;77.60;;;;;;5044013;28;20128;-71
2021/08/01 07:19:34;;;;;;;2.50;1.50;;;18.00;77.30;;;;;;5043882;28;20044;-71
2021/08/01 07:22:18;;;;;;;2.78;2.10;;;18.10;77.20;;;;;;5043908;28;20343;-71
2021/08/01 07:25:03;;;;;;;2.30;1.83;;;18.20;76.80;;;;;;5043379;28;20104;-71
2021/08/01 07:27:48;;;;;;;3.47;1.98;;;18.20;76.80;;;;;;5043619;28;20205;-70
2021/08/01 07:30:32;;;;;;;2.67;1.83;;;18.20;76.80;;;;;;5042512;28;20091;-70
2021/08/01 07:33:16;;;;;;;4.80;2.00;;;18.30;77.10;;;;;;5043428;28;20291;-70
2021/08/01 07:36:01;;;;;;;3.58;2.20;;;18.30;76.80;;;;;;5043905;28;20028;-71
2021/08/01 07:38:46;;;;;;;3.45;1.92;;;18.30;76.70;;;;;;5043570;28;20040;-71
2021/08/01 07:41:30;;;;;;;4.25;2.35;;;18.30;76.70;;;;;;5043201;28;20033;-70
2021/08/01 07:44:14;;;;;;;2.92;1.98;;;18.40;76.60;;;;;;5043324;28;20276;-70
2021/08/01 07:46:58;;;;;;;3.33;1.98;;;18.40;76.50;;;;;;5043299;28;20036;-71
2021/08/01 07:49:43;;;;;;;4.40;2.10;;;18.50;76.60;;;;;;5043262;28;20071;-71
2021/08/01 07:52:28;;;;;;;4.78;2.03;;;18.40;76.60;;;;;;5043203;28;20272;-71
2021/08/01 07:55:15;;;;;;;3.83;2.22;;;18.40;76.30;;;;;;5043270;28;20052;-71
2021/08/01 07:58:00;;;;;;;3.17;2.00;;;18.50;75.80;;;;;;5043524;28;20087;-71
2021/08/01 08:00:44;;;;;;;2.97;1.85;;;18.50;75.80;;;;;;5043181;28;20217;-71
2021/08/01 08:03:28;;;;;;;3.70;2.10;;;18.50;75.70;;;;;;5042241;28;20091;-70
2021/08/01 08:06:12;;;;;;;4.05;2.10;;;18.60;75.90;;;;;;5043220;28;20033;-69
2021/08/01 08:08:57;;;;;;;3.10;2.05;;;18.60;75.80;;;;;;5043618;28;20389;-71
2021/08/01 08:11:41;;;;;;;4.40;2.35;;;18.60;75.60;;;;;;5043192;28;20036;-71
2021/08/01 08:14:25;;;;;;;4.70;2.20;;;18.60;75.30;;;;;;5043600;28;20048;-71
2021/08/01 08:17:09;;;;;;;3.00;2.20;;;18.70;75.60;;;;;;5043490;28;20064;-71
2021/08/01 08:19:54;;;;;;;2.83;1.80;;;18.70;75.60;;;;;;5046260;28;20044;-71
2021/08/01 08:22:38;;;;;;;4.47;2.28;;;18.80;74.40;;;;;;5046909;28;20072;-71
2021/08/01 08:25:23;;;;;;;3.15;2.10;;;18.80;73.20;;;;;;5046845;28;20052;-71
2021/08/01 08:28:07;;;;;;;4.25;2.30;;;18.90;73.90;;;;;;5046742;28;20066;-71
2021/08/01 08:30:51;;;;;;;4.13;2.40;;;19.00;73.80;;;;;;5046544;28;20375;-70
2021/08/01 08:33:37;;;;;;;3.45;2.20;;;19.00;74.20;;;;;;5046521;28;20036;-71
2021/08/01 08:36:21;;;;;;;4.38;2.50;;;19.00;74.30;;;;;;5046340;28;20031;-70
2021/08/01 08:39:05;;;;;;;3.95;2.20;;;19.00;74.70;;;;;;5046832;28;20080;-71
2021/08/01 08:41:49;;;;;;;4.40;2.50;;;19.10;74.10;;;;;;5046527;28;20220;-71
2021/08/01 08:44:34;;;;;;;4.00;2.55;;;19.10;73.60;;;;;;5046824;28;20075;-71
2021/08/01 08:47:19;;;;;;;5.75;1.90;;;19.20;72.70;;;;;;5046712;28;20028;-71
2021/08/01 08:50:04;;;;;;;9.85;2.30;;;19.10;72.30;;;;;;5046418;28;20252;-71
2021/08/01 08:52:53;;;;;;;4.10;2.00;;;19.10;72.20;;;;;;5046110;28;20036;-71
2021/08/01 08:55:37;;;;;;;5.25;2.22;;;19.20;72.50;;;;;;5046334;28;20036;-71
2021/08/01 08:58:23;;;;;;;3.70;2.22;;;19.20;72.40;;;;;;5031290;28;20040;-71
2021/08/01 09:01:07;;;;;;;4.50;1.90;;;19.30;72.80;;;;;;5046039;28;20071;-71
2021/08/01 09:03:51;;;;;;;2.90;1.90;;;19.30;72.20;;;;;;5045895;28;20085;-71
2021/08/01 09:06:35;;;;;;;3.30;1.88;;;19.30;72.30;;;;;;5045925;28;20120;-71
2021/08/01 09:09:20;;;;;;;5.03;2.40;;;19.30;71.50;;;;;;5045825;28;20029;-70
2021/08/01 09:12:04;;;;;;;2.65;1.80;;;19.30;71.80;;;;;;5044974;28;20025;-72
2021/08/01 09:14:48;;;;;;;4.28;2.00;;;19.40;71.10;;;;;;5044907;28;20256;-71
2021/08/01 09:17:36;;;;;;;4.78;2.28;;;19.40;71.80;;;;;;5045491;28;20351;-71
2021/08/01 09:20:27;;;;;;;3.15;1.73;;;19.40;72.10;;;;;;5046095;28;20040;-71
2021/08/01 09:23:12;;;;;;;3.10;2.10;;;19.40;71.70;;;;;;5045553;28;20033;-70
2021/08/01 09:26:00;;;;;;;3.65;2.20;;;19.40;71.80;;;;;;5045902;28;20091;-71
2021/08/01 09:29:02;;;;;;;6.13;2.20;;;19.40;72.00;;;;;;5045911;28;20344;-71
2021/08/01 09:31:56;;;;;;;2.85;1.70;;;19.40;71.60;;;;;;5045539;28;20064;-71
2021/08/01 09:34:44;;;;;;;6.65;2.45;;;19.40;71.70;;;;;;5044490;28;20216;-71
2021/08/01 09:37:37;;;;;;;6.00;2.72;;;19.50;71.60;;;;;;5045361;28;20060;-71
2021/08/01 09:40:22;;;;;;;5.57;2.28;;;19.50;71.70;;;;;;5045270;28;20090;-71
2021/08/01 09:43:09;;;;;;;6.38;3.00;;;19.60;71.20;;;;;;5030473;28;20063;-71
2021/08/01 09:45:57;;;;;;;12.77;2.95;;;19.60;71.70;;;;;;5045095;28;20032;-71
2021/08/01 09:48:41;;;;;;;5.35;2.30;;;19.70;71.20;;;;;;5045030;28;20073;-71
2021/08/01 09:51:25;;;;;;;3.72;2.47;;;19.70;71.10;;;;;;5044853;28;20071;-70
2021/08/01 09:54:11;;;;;;;3.50;2.20;;;19.80;71.20;;;;;;5045372;28;20028;-71
2021/08/01 09:56:56;;;;;;;4.53;1.80;;;19.70;71.30;;;;;;5045079;28;20072;-71
2021/08/01 09:59:40;;;;;;;4.35;2.00;;;19.70;70.80;;;;;;5044980;28;20067;-71
2021/08/01 10:02:35;;;;;;;2.53;1.90;;;19.70;70.40;;;;;;5045239;28;20209;-71
2021/08/01 10:05:20;;;;;;;5.03;2.20;;;19.80;70.20;;;;;;5044657;28;20237;-71
2021/08/01 10:08:05;;;;;;;3.33;2.13;;;19.80;70.50;;;;;;5044583;28;20032;-71
2021/08/01 10:10:50;;;;;;;3.17;2.00;;;19.80;70.50;;;;;;5044493;28;20041;-71
2021/08/01 10:13:34;;;;;;;4.75;2.15;;;19.90;70.70;;;;;;5030022;28;20059;-71
2021/08/01 10:16:19;;;;;;;3.08;2.00;;;19.80;71.40;;;;;;5044451;28;20031;-71
2021/08/01 10:19:03;;;;;;;4.28;2.10;;;19.90;71.70;;;;;;5044643;28;20339;-71
2021/08/01 10:21:49;;;;;;;6.57;2.53;;;19.90;71.50;;;;;;5044441;28;20029;-71
2021/08/01 10:24:44;;;;;;;3.47;2.00;;;19.90;71.00;;;;;;5044099;28;20049;-70
2021/08/01 10:27:28;;;;;;;3.58;2.15;;;20.00;71.40;;;;;;5043362;28;20052;-70
2021/08/01 10:30:14;;;;;;;3.20;1.90;;;20.00;71.60;;;;;;5044668;28;20024;-71
2021/08/01 10:33:08;;;;;;;6.22;2.25;;;20.00;71.70;;;;;;5043363;28;20037;-71
2021/08/01 10:35:57;;;;;;;3.13;2.00;;;20.00;70.20;;;;;;5043390;28;20321;-71
2021/08/01 10:38:41;;;;;;;4.28;2.40;;;20.00;70.40;;;;;;5043319;28;20348;-71
2021/08/01 10:41:25;;;;;;;3.67;1.80;;;19.90;69.20;;;;;;5043956;28;20144;-71
2021/08/01 10:44:12;;;;;;;3.55;1.73;;;19.90;69.30;;;;;;5043099;28;20033;-71
2021/08/01 10:46:56;;;;;;;2.85;2.08;;;19.80;69.40;;;;;;5044399;28;20060;-71
2021/08/01 10:49:41;;;;;;;3.38;1.80;;;19.90;69.40;;;;;;5029126;28;20083;-71
2021/08/01 10:52:28;;;;;;;3.45;2.30;;;19.80;69.80;;;;;;5043152;28;20403;-71
2021/08/01 10:55:23;;;;;;;3.28;1.92;;;19.90;69.20;;;;;;5044072;28;20092;-71
2021/08/01 10:58:13;;;;;;;2.92;2.10;;;19.80;69.40;;;;;;5043831;28;20072;-71
2021/08/01 11:01:07;;;;;;;4.18;2.00;;;19.70;69.50;;;;;;5043907;28;20068;-70
2021/08/01 11:04:24;;;;;;;4.90;2.20;;;19.80;70.20;;;;;;5043018;28;20037;-71
2021/08/01 11:07:09;;;;;;;4.35;2.10;;;19.80;70.70;;;;;;5043726;28;20033;-71
2021/08/01 11:10:12;;;;;;;3.88;1.90;;;19.70;70.80;;;;;;5043741;28;20224;-71
2021/08/01 11:12:57;;;;;;;4.85;2.42;;;19.70;71.00;;;;;;5043729;28;20213;-71
2021/08/01 11:15:45;;;;;;;4.68;2.58;;;19.70;70.60;;;;;;5043617;28;20032;-71
2021/08/01 11:18:34;;;;;;;3.72;2.22;;;19.70;70.20;;;;;;5042751;28;20044;-70
2021/08/01 11:21:18;;;;;;;3.78;2.28;;;19.80;70.30;;;;;;5043807;28;20032;-70
2021/08/01 11:24:12;;;;;;;4.22;2.25;;;19.70;69.90;;;;;;5028891;28;20068;-71
2021/08/01 11:27:06;;;;;;;3.60;2.28;;;19.70;69.50;;;;;;5043658;28;20039;-71
2021/08/01 11:30:00;;;;;;;3.92;2.20;;;19.70;70.30;;;;;;5042628;28;20040;-71
2021/08/01 11:32:51;;;;;;;3.17;2.00;;;19.60;70.30;;;;;;5043618;28;20229;-71
2021/08/01 11:35:35;;;;;;;4.03;2.20;;;19.60;70.70;;;;;;5043365;28;20033;-71
2021/08/01 11:38:19;;;;;;;4.35;2.30;;;19.60;70.70;;;;;;5043386;28;20028;-71
2021/08/01 11:41:04;;;;;;;6.07;2.08;;;19.60;70.70;;;;;;5042760;28;20048;-71
2021/08/01 11:44:07;;;;;;;5.63;2.40;;;19.50;70.90;;;;;;5042422;28;20056;-71
2021/08/01 11:47:04;;;;;;;3.33;2.05;;;19.50;70.50;;;;;;5043339;28;20075;-71
2021/08/01 11:49:49;;;;;;;4.70;2.45;;;19.50;70.80;;;;;;5043252;28;20044;-70
2021/08/01 11:52:42;;;;;;;5.97;2.13;;;19.50;70.90;;;;;;5044105;28;20152;-71
2021/08/01 11:55:26;;;;;;;3.35;2.13;;;19.40;71.30;;;;;;5047316;28;20044;-70
2021/08/01 11:58:10;;;;;;;3.58;1.80;;;19.20;71.60;;;;;;5047026;28;20232;-71
2021/08/01 12:00:54;;;;;;;3.75;2.40;;;19.20;71.50;;;;;;5047119;28;20081;-70
2021/08/01 12:03:39;;;;;;;4.22;2.05;;;19.20;71.70;;;;;;5046163;28;20085;-70
2021/08/01 12:06:39;;;;;;;4.25;1.77;;;19.20;71.60;;;;;;5046347;28;20092;-70
2021/08/01 12:09:25;;;;;;;5.00;2.03;;;19.10;71.70;;;;;;5046965;28;20056;-70
2021/08/01 12:12:10;;;;;;;3.95;2.10;;;19.10;71.80;;;;;;5046237;28;20071;-71
2021/08/01 12:14:55;;;;;;;6.22;2.08;;;19.30;72.10;;;;;;5046086;28;20032;-70
2021/08/01 12:17:39;;;;;;;5.22;2.25;;;19.20;72.40;;;;;;5046866;28;20059;-71
2021/08/01 12:20:33;;;;;;;5.38;2.20;;;19.10;71.70;;;;;;5047243;28;20041;-71
2021/08/01 12:23:18;;;;;;;7.25;2.17;;;19.20;71.70;;;;;;5045628;28;20075;-70
2021/08/01 12:26:02;;;;;;;3.60;2.03;;;19.10;71.90;;;;;;5047107;28;20356;-71
2021/08/01 12:28:46;;;;;;;3.88;2.10;;;19.20;71.60;;;;;;5046709;28;20315;-71
2021/08/01 12:31:31;;;;;;;2.80;2.00;;;19.20;71.80;;;;;;5046441;28;20375;-71
2021/08/01 12:34:20;;;;;;;4.22;2.03;;;19.20;70.80;;;;;;5046386;28;20453;-70
2021/08/01 12:37:04;;;;;;;4.70;2.00;;;18.90;70.40;;;;;;5046346;28;20071;-70
2021/08/01 12:39:50;;;;;;;4.00;2.10;;;19.10;71.10;;;;;;5046386;28;20040;-70
2021/08/01 12:42:34;;;;;;;3.75;2.50;;;19.00;71.40;;;;;;5046303;28;20351;-70
2021/08/01 12:45:18;;;;;;;3.58;2.33;;;19.00;71.50;;;;;;5046230;28;20036;-70
2021/08/01 12:48:04;;;;;;;6.25;2.38;;;19.00;72.20;;;;;;5046656;28;20067;-71
2021/08/01 12:50:49;;;;;;;6.22;2.30;;;19.10;72.10;;;;;;5045294;28;20099;-71
2021/08/01 12:53:34;;;;;;;5.25;2.70;;;19.10;72.00;;;;;;5045989;28;20040;-71
2021/08/01 12:56:18;;;;;;;3.78;2.13;;;19.10;72.80;;;;;;5045500;28;20099;-71
2021/08/01 12:59:10;;;;;;;5.28;2.35;;;19.20;72.60;;;;;;5045999;28;20076;-71
2021/08/01 13:01:54;;;;;;;4.38;2.70;;;18.90;72.10;;;;;;5046554;28;20052;-71
2021/08/01 13:04:40;;;;;;;4.70;2.03;;;19.10;72.80;;;;;;5045309;28;20032;-70
2021/08/01 13:07:24;;;;;;;5.32;2.00;;;19.10;72.70;;;;;;5046139;28;20088;-71
2021/08/01 13:10:09;;;;;;;3.92;1.95;;;19.00;71.80;;;;;;5045725;28;20124;-71
2021/08/01 13:13:13;;;;;;;2.55;1.77;;;18.80;72.10;;;;;;5045877;28;20029;-70
2021/08/01 13:15:59;;;;;;;3.92;2.15;;;18.90;72.10;;;;;;5045016;28;20036;-70
2021/08/01 13:18:43;;;;;;;4.25;2.15;;;19.00;72.40;;;;;;5045741;28;20128;-70
2021/08/01 13:21:28;;;;;;;3.30;1.90;;;18.90;73.00;;;;;;5045543;28;20068;-69
2021/08/01 13:24:13;;;;;;;2.28;1.73;;;18.80;72.70;;;;;;5045833;28;20088;-71
2021/08/01 13:27:08;;;;;;;2.60;1.83;;;18.90;72.20;;;;;;5045649;28;20036;-71
2021/08/01 13:30:13;;;;;;;2.58;1.73;;;18.90;71.10;;;;;;5045667;28;20232;-70
2021/08/01 13:32:58;;;;;;;4.32;2.22;;;18.90;72.40;;;;;;5045517;28;20040;-70
2021/08/01 13:35:50;;;;;;;4.55;2.03;;;19.00;72.00;;;;;;5030635;28;20117;-70
2021/08/01 13:38:34;;;;;;;3.70;2.05;;;18.80;72.00;;;;;;5045801;28;20033;-71
2021/08/01 13:41:19;;;;;;;3.40;2.10;;;18.60;72.00;;;;;;5044695;28;20041;-71
2021/08/01 13:44:21;;;;;;;3.13;2.00;;;18.80;72.30;;;;;;5045554;28;20081;-71
2021/08/01 13:47:10;;;;;;;5.75;2.55;;;18.80;71.70;;;;;;5045525;28;20351;-70
2021/08/01 13:49:55;;;;;;;3.72;2.35;;;18.80;72.40;;;;;;5044986;28;20052;-70
2021/08/01 13:52:46;;;;;;;4.68;2.40;;;18.80;72.60;;;;;;5045006;28;20068;-70
2021/08/01 13:55:30;;;;;;;4.40;2.00;;;18.90;72.80;;;;;;5044943;28;20101;-71
2021/08/01 13:58:14;;;;;;;3.60;2.40;;;18.90;72.50;;;;;;5044860;28;20036;-71
2021/08/01 14:00:59;;;;;;;4.80;2.53;;;18.90;72.90;;;;;;5045241;28;20067;-71
2021/08/01 14:03:45;;;;;;;8.70;2.60;;;18.90;73.10;;;;;;5044816;28;20033;-70
2021/08/01 14:06:31;;;;;;;5.80;2.67;;;19.10;73.30;;;;;;5044745;28;20415;-70
2021/08/01 14:09:15;;;;;;;5.00;2.55;;;18.80;73.90;;;;;;5044923;28;20024;-70
2021/08/01 14:12:00;;;;;;;6.13;2.85;;;18.80;74.50;;;;;;5044992;28;20053;-71
2021/08/01 14:14:44;;;;;;;4.70;2.60;;;18.80;74.60;;;;;;5044677;28;20036;-70
2021/08/01 14:17:28;;;;;;;5.47;2.78;;;18.90;74.50;;;;;;5044090;28;20068;-70
2021/08/01 14:20:13;;;;;;;4.80;2.28;;;18.70;73.70;;;;;;5044936;28;20112;-70
2021/08/01 14:22:57;;;;;;;5.22;2.47;;;18.70;73.30;;;;;;5044419;28;20072;-70